sensor_id;sensor_type;location;lat;lon;timestamp;temperature;humidity
25192;DHT22;13143;50.924;5.320;2024-01-06T00:01:40;8.90;99.90
25192;DHT22;13143;50.924;5.320;2024-01-06T00:04:05;8.90;99.90
25192;DHT22;13143;50.924;5.320;2024-01-06T00:06:31;8.90;99.90
25192;DHT22;13143;50.924;5.320;2024-01-06T00:08:57;8.90;99.90
25192;DHT22;13143;50.924;5.320;2024-01-06T00:11:23;8.90;99.90
25192;DHT22;13143;50.924;5.320;2024-01-06T00:13:49;8.90;99.90
25192;DHT22;13143;50.924;5.320;2024-01-06T00:16:19;8.90;99.90
25192;DHT22;13143;50.924;5.320;2024-01-06T00:18:45;8.90;99.90
25192;DHT22;13143;50.924;5.320;2024-01-06T00:21:11;8.90;99.90
25192;DHT22;13143;50.924;5.320;2024-01-06T00:23:37;8.90;99.90
25192;DHT22;13143;50.924;5.320;2024-01-06T00:26:03;8.90;99.90
25192;DHT22;13143;50.924;5.320;2024-01-06T00:28:29;8.90;99.90
25192;DHT22;13143;50.924;5.320;2024-01-06T00:30:55;9.00;99.90
25192;DHT22;13143;50.924;5.320;2024-01-06T00:33:21;9.00;99.90
25192;DHT22;13143;50.924;5.320;2024-01-06T00:35:46;9.00;99.90
25192;DHT22;13143;50.924;5.320;2024-01-06T00:38:12;9.00;99.90
25192;DHT22;13143;50.924;5.320;2024-01-06T00:40:38;9.00;99.90
25192;DHT22;13143;50.924;5.320;2024-01-06T00:43:04;9.00;99.90
25192;DHT22;13143;50.924;5.320;2024-01-06T00:45:30;9.00;99.90
25192;DHT22;13143;50.924;5.320;2024-01-06T00:47:56;9.00;99.90
25192;DHT22;13143;50.924;5.320;2024-01-06T00:50:22;9.00;99.90
25192;DHT22;13143;50.924;5.320;2024-01-06T00:52:48;9.00;99.90
25192;DHT22;13143;50.924;5.320;2024-01-06T00:55:13;9.00;99.90
25192;DHT22;13143;50.924;5.320;2024-01-06T00:57:39;9.00;99.90
25192;DHT22;13143;50.924;5.320;2024-01-06T01:00:05;9.00;99.90
25192;DHT22;13143;50.924;5.320;2024-01-06T01:02:31;9.00;99.90
25192;DHT22;13143;50.924;5.320;2024-01-06T01:04:57;9.00;99.90
25192;DHT22;13143;50.924;5.320;2024-01-06T01:07:24;9.00;99.90
25192;DHT22;13143;50.924;5.320;2024-01-06T01:09:50;9.00;99.90
25192;DHT22;13143;50.924;5.320;2024-01-06T01:12:15;9.00;99.90
25192;DHT22;13143;50.924;5.320;2024-01-06T01:14:41;9.00;99.90
25192;DHT22;13143;50.924;5.320;2024-01-06T01:17:07;9.00;99.90
25192;DHT22;13143;50.924;5.320;2024-01-06T01:19:32;9.00;99.90
25192;DHT22;13143;50.924;5.320;2024-01-06T01:21:58;9.00;99.90
25192;DHT22;13143;50.924;5.320;2024-01-06T01:24:24;9.00;99.90
25192;DHT22;13143;50.924;5.320;2024-01-06T01:26:50;9.00;99.90
25192;DHT22;13143;50.924;5.320;2024-01-06T01:29:16;9.00;99.90
25192;DHT22;13143;50.924;5.320;2024-01-06T01:31:42;9.00;99.90
25192;DHT22;13143;50.924;5.320;2024-01-06T01:34:08;9.00;99.90
25192;DHT22;13143;50.924;5.320;2024-01-06T01:36:34;9.00;99.90
25192;DHT22;13143;50.924;5.320;2024-01-06T01:38:59;9.00;99.90
25192;DHT22;13143;50.924;5.320;2024-01-06T01:41:25;9.00;99.90
25192;DHT22;13143;50.924;5.320;2024-01-06T01:43:51;9.00;99.90
25192;DHT22;13143;50.924;5.320;2024-01-06T01:46:27;9.00;99.90
25192;DHT22;13143;50.924;5.320;2024-01-06T01:48:57;9.00;99.90
25192;DHT22;13143;50.924;5.320;2024-01-06T01:51:29;9.00;99.90
25192;DHT22;13143;50.924;5.320;2024-01-06T01:53:57;9.00;99.90
25192;DHT22;13143;50.924;5.320;2024-01-06T01:56:24;9.00;99.90
25192;DHT22;13143;50.924;5.320;2024-01-06T01:58:50;9.00;99.90
25192;DHT22;13143;50.924;5.320;2024-01-06T02:01:16;9.00;99.90
25192;DHT22;13143;50.924;5.320;2024-01-06T02:03:42;9.00;99.90
25192;DHT22;13143;50.924;5.320;2024-01-06T02:06:11;9.00;99.90
25192;DHT22;13143;50.924;5.320;2024-01-06T02:08:37;9.00;99.90
25192;DHT22;13143;50.924;5.320;2024-01-06T02:11:04;9.00;99.90
25192;DHT22;13143;50.924;5.320;2024-01-06T02:13:33;9.00;99.90
25192;DHT22;13143;50.924;5.320;2024-01-06T02:16:00;9.00;99.90
25192;DHT22;13143;50.924;5.320;2024-01-06T02:18:26;9.00;99.90
25192;DHT22;13143;50.924;5.320;2024-01-06T02:20:53;9.00;99.90
25192;DHT22;13143;50.924;5.320;2024-01-06T02:23:22;9.00;99.90
25192;DHT22;13143;50.924;5.320;2024-01-06T02:25:48;9.00;99.90
25192;DHT22;13143;50.924;5.320;2024-01-06T02:28:13;9.00;99.90
25192;DHT22;13143;50.924;5.320;2024-01-06T02:30:39;9.00;99.90
25192;DHT22;13143;50.924;5.320;2024-01-06T02:33:05;9.00;99.90
25192;DHT22;13143;50.924;5.320;2024-01-06T02:35:31;9.00;99.90
25192;DHT22;13143;50.924;5.320;2024-01-06T02:37:56;9.00;99.90
25192;DHT22;13143;50.924;5.320;2024-01-06T02:40:22;9.00;99.90
25192;DHT22;13143;50.924;5.320;2024-01-06T02:42:47;9.00;99.90
25192;DHT22;13143;50.924;5.320;2024-01-06T02:45:13;9.00;99.90
25192;DHT22;13143;50.924;5.320;2024-01-06T02:47:39;9.00;99.90
25192;DHT22;13143;50.924;5.320;2024-01-06T02:50:05;9.00;99.90
25192;DHT22;13143;50.924;5.320;2024-01-06T02:52:31;9.00;99.90
25192;DHT22;13143;50.924;5.320;2024-01-06T02:54:57;8.90;99.90
25192;DHT22;13143;50.924;5.320;2024-01-06T02:57:22;9.00;99.90
25192;DHT22;13143;50.924;5.320;2024-01-06T02:59:48;8.90;99.90
25192;DHT22;13143;50.924;5.320;2024-01-06T03:02:14;9.00;99.90
25192;DHT22;13143;50.924;5.320;2024-01-06T03:04:39;9.00;99.90
25192;DHT22;13143;50.924;5.320;2024-01-06T03:07:05;9.00;99.90
25192;DHT22;13143;50.924;5.320;2024-01-06T03:09:31;9.00;99.90
25192;DHT22;13143;50.924;5.320;2024-01-06T03:11:56;9.00;99.90
25192;DHT22;13143;50.924;5.320;2024-01-06T03:14:22;9.00;99.90
25192;DHT22;13143;50.924;5.320;2024-01-06T03:16:48;9.00;99.90
25192;DHT22;13143;50.924;5.320;2024-01-06T03:19:14;8.90;99.90
25192;DHT22;13143;50.924;5.320;2024-01-06T03:21:41;9.00;99.90
25192;DHT22;13143;50.924;5.320;2024-01-06T03:24:07;8.90;99.90
25192;DHT22;13143;50.924;5.320;2024-01-06T03:26:34;8.90;99.90
25192;DHT22;13143;50.924;5.320;2024-01-06T03:29:00;9.00;99.90
25192;DHT22;13143;50.924;5.320;2024-01-06T03:31:29;8.90;99.90
25192;DHT22;13143;50.924;5.320;2024-01-06T03:33:54;8.90;99.90
25192;DHT22;13143;50.924;5.320;2024-01-06T03:36:21;8.90;99.90
25192;DHT22;13143;50.924;5.320;2024-01-06T03:38:47;8.90;99.90
25192;DHT22;13143;50.924;5.320;2024-01-06T03:41:12;8.90;99.90
25192;DHT22;13143;50.924;5.320;2024-01-06T03:43:38;8.90;99.90
25192;DHT22;13143;50.924;5.320;2024-01-06T03:46:05;8.90;99.90
25192;DHT22;13143;50.924;5.320;2024-01-06T03:48:30;8.90;99.90
25192;DHT22;13143;50.924;5.320;2024-01-06T03:50:58;8.90;99.90
25192;DHT22;13143;50.924;5.320;2024-01-06T03:53:24;8.90;99.90
25192;DHT22;13143;50.924;5.320;2024-01-06T03:55:50;8.80;99.90
25192;DHT22;13143;50.924;5.320;2024-01-06T03:58:16;8.80;99.90
25192;DHT22;13143;50.924;5.320;2024-01-06T04:00:41;8.80;99.90
25192;DHT22;13143;50.924;5.320;2024-01-06T04:03:07;8.80;99.90
25192;DHT22;13143;50.924;5.320;2024-01-06T04:05:34;8.80;99.90
25192;DHT22;13143;50.924;5.320;2024-01-06T04:07:59;8.70;99.90
25192;DHT22;13143;50.924;5.320;2024-01-06T04:10:25;8.70;99.90
25192;DHT22;13143;50.924;5.320;2024-01-06T04:12:51;8.70;99.90
25192;DHT22;13143;50.924;5.320;2024-01-06T04:15:17;8.70;99.90
25192;DHT22;13143;50.924;5.320;2024-01-06T04:17:43;8.70;99.90
25192;DHT22;13143;50.924;5.320;2024-01-06T04:20:09;8.70;99.90
25192;DHT22;13143;50.924;5.320;2024-01-06T04:22:38;8.60;99.90
25192;DHT22;13143;50.924;5.320;2024-01-06T04:25:04;8.60;99.90
25192;DHT22;13143;50.924;5.320;2024-01-06T04:27:29;8.60;99.90
25192;DHT22;13143;50.924;5.320;2024-01-06T04:29:56;8.60;99.90
25192;DHT22;13143;50.924;5.320;2024-01-06T04:32:22;8.60;99.90
25192;DHT22;13143;50.924;5.320;2024-01-06T04:34:48;8.50;99.90
25192;DHT22;13143;50.924;5.320;2024-01-06T04:37:16;8.50;99.90
25192;DHT22;13143;50.924;5.320;2024-01-06T04:39:42;8.50;99.90
25192;DHT22;13143;50.924;5.320;2024-01-06T04:42:08;8.50;99.90
25192;DHT22;13143;50.924;5.320;2024-01-06T04:44:33;8.50;99.90
25192;DHT22;13143;50.924;5.320;2024-01-06T04:46:59;8.50;99.90
25192;DHT22;13143;50.924;5.320;2024-01-06T04:49:25;8.40;99.90
25192;DHT22;13143;50.924;5.320;2024-01-06T04:51:50;8.40;99.90
25192;DHT22;13143;50.924;5.320;2024-01-06T04:54:16;8.40;99.90
25192;DHT22;13143;50.924;5.320;2024-01-06T04:56:42;8.40;99.90
25192;DHT22;13143;50.924;5.320;2024-01-06T04:59:08;8.40;99.90
25192;DHT22;13143;50.924;5.320;2024-01-06T05:01:33;8.40;99.90
25192;DHT22;13143;50.924;5.320;2024-01-06T05:03:59;8.40;99.90
25192;DHT22;13143;50.924;5.320;2024-01-06T05:06:25;8.30;99.90
25192;DHT22;13143;50.924;5.320;2024-01-06T05:08:50;8.30;99.90
25192;DHT22;13143;50.924;5.320;2024-01-06T05:11:16;8.30;99.90
25192;DHT22;13143;50.924;5.320;2024-01-06T05:13:42;8.30;99.90
25192;DHT22;13143;50.924;5.320;2024-01-06T05:16:08;8.30;99.90
25192;DHT22;13143;50.924;5.320;2024-01-06T05:18:34;8.20;99.90
25192;DHT22;13143;50.924;5.320;2024-01-06T05:21:00;8.20;99.90
25192;DHT22;13143;50.924;5.320;2024-01-06T05:23:26;8.20;99.90
25192;DHT22;13143;50.924;5.320;2024-01-06T05:25:52;8.20;99.90
25192;DHT22;13143;50.924;5.320;2024-01-06T05:28:17;8.10;99.90
25192;DHT22;13143;50.924;5.320;2024-01-06T05:30:43;8.10;99.90
25192;DHT22;13143;50.924;5.320;2024-01-06T05:33:12;8.10;99.90
25192;DHT22;13143;50.924;5.320;2024-01-06T05:35:39;8.10;99.90
25192;DHT22;13143;50.924;5.320;2024-01-06T05:38:05;8.10;99.90
25192;DHT22;13143;50.924;5.320;2024-01-06T05:40:30;8.00;99.90
25192;DHT22;13143;50.924;5.320;2024-01-06T05:42:56;8.00;99.90
25192;DHT22;13143;50.924;5.320;2024-01-06T05:45:22;8.00;99.90
25192;DHT22;13143;50.924;5.320;2024-01-06T05:47:48;7.90;99.90
25192;DHT22;13143;50.924;5.320;2024-01-06T05:50:16;7.90;99.90
25192;DHT22;13143;50.924;5.320;2024-01-06T05:52:42;7.90;99.90
25192;DHT22;13143;50.924;5.320;2024-01-06T05:55:08;7.90;99.90
25192;DHT22;13143;50.924;5.320;2024-01-06T05:57:34;7.90;99.90
25192;DHT22;13143;50.924;5.320;2024-01-06T06:00:00;7.80;99.90
25192;DHT22;13143;50.924;5.320;2024-01-06T06:02:26;7.80;99.90
25192;DHT22;13143;50.924;5.320;2024-01-06T06:04:52;7.80;99.90
25192;DHT22;13143;50.924;5.320;2024-01-06T06:07:18;7.80;99.90
25192;DHT22;13143;50.924;5.320;2024-01-06T06:09:44;7.80;99.90
25192;DHT22;13143;50.924;5.320;2024-01-06T06:12:13;7.70;99.90
25192;DHT22;13143;50.924;5.320;2024-01-06T06:14:39;7.80;99.90
25192;DHT22;13143;50.924;5.320;2024-01-06T06:17:05;7.70;99.90
25192;DHT22;13143;50.924;5.320;2024-01-06T06:19:31;7.70;99.90
25192;DHT22;13143;50.924;5.320;2024-01-06T06:21:57;7.70;99.90
25192;DHT22;13143;50.924;5.320;2024-01-06T06:24:23;7.70;99.90
25192;DHT22;13143;50.924;5.320;2024-01-06T06:26:48;7.70;99.90
25192;DHT22;13143;50.924;5.320;2024-01-06T06:29:14;7.60;99.90
25192;DHT22;13143;50.924;5.320;2024-01-06T06:31:40;7.70;99.90
25192;DHT22;13143;50.924;5.320;2024-01-06T06:34:08;7.60;99.90
25192;DHT22;13143;50.924;5.320;2024-01-06T06:36:35;7.60;99.90
25192;DHT22;13143;50.924;5.320;2024-01-06T06:39:01;7.60;99.90
25192;DHT22;13143;50.924;5.320;2024-01-06T06:41:27;7.60;99.90
25192;DHT22;13143;50.924;5.320;2024-01-06T06:43:52;7.60;99.90
25192;DHT22;13143;50.924;5.320;2024-01-06T06:46:18;7.60;99.90
25192;DHT22;13143;50.924;5.320;2024-01-06T06:48:44;7.50;99.90
25192;DHT22;13143;50.924;5.320;2024-01-06T06:51:09;7.50;99.90
25192;DHT22;13143;50.924;5.320;2024-01-06T06:53:36;7.60;99.90
25192;DHT22;13143;50.924;5.320;2024-01-06T06:56:02;7.50;99.90
25192;DHT22;13143;50.924;5.320;2024-01-06T06:58:27;7.50;99.90
25192;DHT22;13143;50.924;5.320;2024-01-06T07:00:53;7.50;99.90
25192;DHT22;13143;50.924;5.320;2024-01-06T07:03:20;7.50;99.90
25192;DHT22;13143;50.924;5.320;2024-01-06T07:05:45;7.50;99.90
25192;DHT22;13143;50.924;5.320;2024-01-06T07:08:11;7.50;99.90
25192;DHT22;13143;50.924;5.320;2024-01-06T07:10:38;7.50;99.90
25192;DHT22;13143;50.924;5.320;2024-01-06T07:13:04;7.50;99.90
25192;DHT22;13143;50.924;5.320;2024-01-06T07:15:30;7.50;99.90
25192;DHT22;13143;50.924;5.320;2024-01-06T07:17:56;7.40;99.90
25192;DHT22;13143;50.924;5.320;2024-01-06T07:20:22;7.50;99.90
25192;DHT22;13143;50.924;5.320;2024-01-06T07:22:47;7.40;99.90
25192;DHT22;13143;50.924;5.320;2024-01-06T07:25:13;7.40;99.90
25192;DHT22;13143;50.924;5.320;2024-01-06T07:27:39;7.40;99.90
25192;DHT22;13143;50.924;5.320;2024-01-06T07:30:05;7.40;99.90
25192;DHT22;13143;50.924;5.320;2024-01-06T07:32:33;7.40;99.90
25192;DHT22;13143;50.924;5.320;2024-01-06T07:34:59;7.30;99.90
25192;DHT22;13143;50.924;5.320;2024-01-06T07:37:24;7.30;99.90
25192;DHT22;13143;50.924;5.320;2024-01-06T07:39:51;7.30;99.90
25192;DHT22;13143;50.924;5.320;2024-01-06T07:42:17;7.30;99.90
25192;DHT22;13143;50.924;5.320;2024-01-06T07:44:43;7.30;99.90
25192;DHT22;13143;50.924;5.320;2024-01-06T07:47:10;7.30;99.90
25192;DHT22;13143;50.924;5.320;2024-01-06T07:49:36;7.30;99.90
25192;DHT22;13143;50.924;5.320;2024-01-06T07:52:02;7.30;99.90
25192;DHT22;13143;50.924;5.320;2024-01-06T07:54:28;7.20;99.90
25192;DHT22;13143;50.924;5.320;2024-01-06T07:56:53;7.20;99.90
25192;DHT22;13143;50.924;5.320;2024-01-06T07:59:19;7.20;99.90
25192;DHT22;13143;50.924;5.320;2024-01-06T08:01:45;7.20;99.90
25192;DHT22;13143;50.924;5.320;2024-01-06T08:04:10;7.20;99.90
25192;DHT22;13143;50.924;5.320;2024-01-06T08:06:36;7.20;99.90
25192;DHT22;13143;50.924;5.320;2024-01-06T08:09:02;7.10;99.90
25192;DHT22;13143;50.924;5.320;2024-01-06T08:11:29;7.10;99.90
25192;DHT22;13143;50.924;5.320;2024-01-06T08:13:54;7.10;99.90
25192;DHT22;13143;50.924;5.320;2024-01-06T08:16:20;7.10;99.90
25192;DHT22;13143;50.924;5.320;2024-01-06T08:18:46;7.10;99.90
25192;DHT22;13143;50.924;5.320;2024-01-06T08:21:12;7.10;99.90
25192;DHT22;13143;50.924;5.320;2024-01-06T08:23:37;7.10;99.90
25192;DHT22;13143;50.924;5.320;2024-01-06T08:26:04;7.10;99.90
25192;DHT22;13143;50.924;5.320;2024-01-06T08:28:30;7.10;99.90
25192;DHT22;13143;50.924;5.320;2024-01-06T08:30:56;7.10;99.90
25192;DHT22;13143;50.924;5.320;2024-01-06T08:33:22;7.10;99.90
25192;DHT22;13143;50.924;5.320;2024-01-06T08:35:47;7.00;99.90
25192;DHT22;13143;50.924;5.320;2024-01-06T08:38:14;7.10;99.90
25192;DHT22;13143;50.924;5.320;2024-01-06T08:40:40;7.10;99.90
25192;DHT22;13143;50.924;5.320;2024-01-06T08:43:05;7.00;99.90
25192;DHT22;13143;50.924;5.320;2024-01-06T08:45:31;7.00;99.90
25192;DHT22;13143;50.924;5.320;2024-01-06T08:47:57;7.00;99.90
25192;DHT22;13143;50.924;5.320;2024-01-06T08:50:23;7.00;99.90
25192;DHT22;13143;50.924;5.320;2024-01-06T08:52:48;7.00;99.90
25192;DHT22;13143;50.924;5.320;2024-01-06T08:55:14;7.00;99.90
25192;DHT22;13143;50.924;5.320;2024-01-06T08:57:42;7.00;99.90
25192;DHT22;13143;50.924;5.320;2024-01-06T09:00:08;7.00;99.90
25192;DHT22;13143;50.924;5.320;2024-01-06T09:02:34;7.00;99.90
25192;DHT22;13143;50.924;5.320;2024-01-06T09:05:00;7.00;99.90
25192;DHT22;13143;50.924;5.320;2024-01-06T09:07:26;7.00;99.90
25192;DHT22;13143;50.924;5.320;2024-01-06T09:09:51;7.00;99.90
25192;DHT22;13143;50.924;5.320;2024-01-06T09:12:17;6.90;99.90
25192;DHT22;13143;50.924;5.320;2024-01-06T09:14:43;6.90;99.90
25192;DHT22;13143;50.924;5.320;2024-01-06T09:17:08;6.90;99.90
25192;DHT22;13143;50.924;5.320;2024-01-06T09:19:34;6.90;99.90
25192;DHT22;13143;50.924;5.320;2024-01-06T09:22:00;6.90;99.90
25192;DHT22;13143;50.924;5.320;2024-01-06T09:24:26;6.90;99.90
25192;DHT22;13143;50.924;5.320;2024-01-06T09:26:51;6.90;99.90
25192;DHT22;13143;50.924;5.320;2024-01-06T09:29:17;6.90;99.90
25192;DHT22;13143;50.924;5.320;2024-01-06T09:31:43;6.90;99.90
25192;DHT22;13143;50.924;5.320;2024-01-06T09:34:12;6.90;99.90
25192;DHT22;13143;50.924;5.320;2024-01-06T09:36:38;6.90;99.90
25192;DHT22;13143;50.924;5.320;2024-01-06T09:39:04;6.90;99.90
25192;DHT22;13143;50.924;5.320;2024-01-06T09:41:30;6.90;99.90
25192;DHT22;13143;50.924;5.320;2024-01-06T09:43:56;6.90;99.90
25192;DHT22;13143;50.924;5.320;2024-01-06T09:46:27;6.90;99.90
25192;DHT22;13143;50.924;5.320;2024-01-06T09:48:54;6.90;99.90
25192;DHT22;13143;50.924;5.320;2024-01-06T09:51:21;6.90;99.90
25192;DHT22;13143;50.924;5.320;2024-01-06T09:53:58;6.90;99.90
25192;DHT22;13143;50.924;5.320;2024-01-06T09:56:26;6.80;99.90
25192;DHT22;13143;50.924;5.320;2024-01-06T09:58:52;6.90;99.90
25192;DHT22;13143;50.924;5.320;2024-01-06T10:01:18;6.90;99.90
25192;DHT22;13143;50.924;5.320;2024-01-06T10:03:44;6.80;99.90
25192;DHT22;13143;50.924;5.320;2024-01-06T10:06:16;6.80;99.90
25192;DHT22;13143;50.924;5.320;2024-01-06T10:08:52;6.80;99.90
25192;DHT22;13143;50.924;5.320;2024-01-06T10:11:19;6.80;99.90
25192;DHT22;13143;50.924;5.320;2024-01-06T10:13:49;6.80;99.90
25192;DHT22;13143;50.924;5.320;2024-01-06T10:16:16;6.80;99.90
25192;DHT22;13143;50.924;5.320;2024-01-06T10:18:41;6.80;99.90
25192;DHT22;13143;50.924;5.320;2024-01-06T10:21:07;6.80;99.90
25192;DHT22;13143;50.924;5.320;2024-01-06T10:23:33;6.80;99.90
25192;DHT22;13143;50.924;5.320;2024-01-06T10:25:59;6.80;99.90
25192;DHT22;13143;50.924;5.320;2024-01-06T10:28:25;6.70;99.90
25192;DHT22;13143;50.924;5.320;2024-01-06T10:30:52;6.70;99.90
25192;DHT22;13143;50.924;5.320;2024-01-06T10:33:22;6.70;99.90
25192;DHT22;13143;50.924;5.320;2024-01-06T10:35:49;6.70;99.90
25192;DHT22;13143;50.924;5.320;2024-01-06T10:38:15;6.70;99.90
25192;DHT22;13143;50.924;5.320;2024-01-06T10:41:01;6.70;99.90
25192;DHT22;13143;50.924;5.320;2024-01-06T10:43:35;6.70;99.90
25192;DHT22;13143;50.924;5.320;2024-01-06T10:46:04;6.70;99.90
25192;DHT22;13143;50.924;5.320;2024-01-06T10:48:32;6.70;99.90
25192;DHT22;13143;50.924;5.320;2024-01-06T10:50:59;6.70;99.90
25192;DHT22;13143;50.924;5.320;2024-01-06T10:53:27;6.70;99.90
25192;DHT22;13143;50.924;5.320;2024-01-06T10:55:52;6.70;99.90
25192;DHT22;13143;50.924;5.320;2024-01-06T10:58:19;6.60;99.90
25192;DHT22;13143;50.924;5.320;2024-01-06T11:00:45;6.70;99.90
25192;DHT22;13143;50.924;5.320;2024-01-06T11:03:13;6.70;99.90
25192;DHT22;13143;50.924;5.320;2024-01-06T11:05:41;6.70;99.90
25192;DHT22;13143;50.924;5.320;2024-01-06T11:08:08;6.70;99.90
25192;DHT22;13143;50.924;5.320;2024-01-06T11:10:36;6.70;99.90
25192;DHT22;13143;50.924;5.320;2024-01-06T11:13:12;6.70;99.90
25192;DHT22;13143;50.924;5.320;2024-01-06T11:15:43;6.70;99.90
25192;DHT22;13143;50.924;5.320;2024-01-06T11:18:09;6.70;99.90
25192;DHT22;13143;50.924;5.320;2024-01-06T11:20:34;6.70;99.90
25192;DHT22;13143;50.924;5.320;2024-01-06T11:23:20;6.70;99.90
25192;DHT22;13143;50.924;5.320;2024-01-06T11:25:48;6.70;99.90
25192;DHT22;13143;50.924;5.320;2024-01-06T11:28:16;6.70;99.90
25192;DHT22;13143;50.924;5.320;2024-01-06T11:30:42;6.70;99.90
25192;DHT22;13143;50.924;5.320;2024-01-06T11:33:08;6.70;99.90
25192;DHT22;13143;50.924;5.320;2024-01-06T11:35:37;6.70;99.90
25192;DHT22;13143;50.924;5.320;2024-01-06T11:38:06;6.70;99.90
25192;DHT22;13143;50.924;5.320;2024-01-06T11:40:35;6.70;99.90
25192;DHT22;13143;50.924;5.320;2024-01-06T11:45:31;6.70;99.90
25192;DHT22;13143;50.924;5.320;2024-01-06T11:48:05;6.70;99.90
25192;DHT22;13143;50.924;5.320;2024-01-06T11:50:33;6.70;99.90
25192;DHT22;13143;50.924;5.320;2024-01-06T11:52:59;6.70;99.90
25192;DHT22;13143;50.924;5.320;2024-01-06T11:55:25;6.70;99.90
25192;DHT22;13143;50.924;5.320;2024-01-06T11:57:54;6.70;99.90
25192;DHT22;13143;50.924;5.320;2024-01-06T12:00:22;6.70;99.90
25192;DHT22;13143;50.924;5.320;2024-01-06T12:02:47;6.70;99.90
25192;DHT22;13143;50.924;5.320;2024-01-06T12:05:15;6.70;99.90
25192;DHT22;13143;50.924;5.320;2024-01-06T12:07:41;6.70;99.90
25192;DHT22;13143;50.924;5.320;2024-01-06T12:10:10;6.70;99.90
25192;DHT22;13143;50.924;5.320;2024-01-06T12:12:37;6.70;99.90
25192;DHT22;13143;50.924;5.320;2024-01-06T12:15:03;6.70;99.90
25192;DHT22;13143;50.924;5.320;2024-01-06T12:17:30;6.70;99.90
25192;DHT22;13143;50.924;5.320;2024-01-06T12:19:57;6.70;99.90
25192;DHT22;13143;50.924;5.320;2024-01-06T12:22:22;6.70;99.90
25192;DHT22;13143;50.924;5.320;2024-01-06T12:24:51;6.70;99.90
25192;DHT22;13143;50.924;5.320;2024-01-06T12:27:17;6.70;99.90
25192;DHT22;13143;50.924;5.320;2024-01-06T12:29:45;6.70;99.90
25192;DHT22;13143;50.924;5.320;2024-01-06T12:32:11;6.70;99.90
25192;DHT22;13143;50.924;5.320;2024-01-06T12:34:39;6.70;99.90
25192;DHT22;13143;50.924;5.320;2024-01-06T12:37:06;6.70;99.90
25192;DHT22;13143;50.924;5.320;2024-01-06T12:39:33;6.70;99.90
25192;DHT22;13143;50.924;5.320;2024-01-06T12:42:00;6.70;99.90
25192;DHT22;13143;50.924;5.320;2024-01-06T12:44:26;6.60;99.90
25192;DHT22;13143;50.924;5.320;2024-01-06T12:46:53;6.60;99.90
25192;DHT22;13143;50.924;5.320;2024-01-06T12:49:19;6.60;99.90
25192;DHT22;13143;50.924;5.320;2024-01-06T12:51:45;6.60;99.90
25192;DHT22;13143;50.924;5.320;2024-01-06T12:54:10;6.60;99.90
25192;DHT22;13143;50.924;5.320;2024-01-06T12:56:36;6.60;99.90
25192;DHT22;13143;50.924;5.320;2024-01-06T12:59:02;6.60;99.90
25192;DHT22;13143;50.924;5.320;2024-01-06T13:01:28;6.60;99.90
25192;DHT22;13143;50.924;5.320;2024-01-06T13:03:54;6.60;99.90
25192;DHT22;13143;50.924;5.320;2024-01-06T13:06:20;6.60;99.90
25192;DHT22;13143;50.924;5.320;2024-01-06T13:08:46;6.60;99.90
25192;DHT22;13143;50.924;5.320;2024-01-06T13:11:13;6.60;99.90
25192;DHT22;13143;50.924;5.320;2024-01-06T13:13:38;6.60;99.90
25192;DHT22;13143;50.924;5.320;2024-01-06T13:16:04;6.60;99.90
25192;DHT22;13143;50.924;5.320;2024-01-06T13:18:31;6.60;99.90
25192;DHT22;13143;50.924;5.320;2024-01-06T13:20:57;6.60;99.90
25192;DHT22;13143;50.924;5.320;2024-01-06T13:23:23;6.60;99.90
25192;DHT22;13143;50.924;5.320;2024-01-06T13:25:49;6.50;99.90
25192;DHT22;13143;50.924;5.320;2024-01-06T13:28:14;6.50;99.90
25192;DHT22;13143;50.924;5.320;2024-01-06T13:30:40;6.50;99.90
25192;DHT22;13143;50.924;5.320;2024-01-06T13:33:07;6.50;99.90
25192;DHT22;13143;50.924;5.320;2024-01-06T13:35:34;6.50;99.90
25192;DHT22;13143;50.924;5.320;2024-01-06T13:38:02;6.50;99.90
25192;DHT22;13143;50.924;5.320;2024-01-06T13:40:29;6.50;99.90
25192;DHT22;13143;50.924;5.320;2024-01-06T13:42:55;6.50;99.90
25192;DHT22;13143;50.924;5.320;2024-01-06T13:45:21;6.50;99.90
25192;DHT22;13143;50.924;5.320;2024-01-06T13:47:47;6.40;99.90
25192;DHT22;13143;50.924;5.320;2024-01-06T13:50:15;6.50;99.90
25192;DHT22;13143;50.924;5.320;2024-01-06T13:52:42;6.50;99.90
25192;DHT22;13143;50.924;5.320;2024-01-06T13:55:08;6.50;99.90
25192;DHT22;13143;50.924;5.320;2024-01-06T13:57:34;6.50;99.90
25192;DHT22;13143;50.924;5.320;2024-01-06T14:00:00;6.40;99.90
25192;DHT22;13143;50.924;5.320;2024-01-06T14:02:26;6.40;99.90
25192;DHT22;13143;50.924;5.320;2024-01-06T14:04:52;6.40;99.90
25192;DHT22;13143;50.924;5.320;2024-01-06T14:07:18;6.50;99.90
25192;DHT22;13143;50.924;5.320;2024-01-06T14:09:45;6.40;99.90
25192;DHT22;13143;50.924;5.320;2024-01-06T14:12:11;6.40;99.90
25192;DHT22;13143;50.924;5.320;2024-01-06T14:14:37;6.40;99.90
25192;DHT22;13143;50.924;5.320;2024-01-06T14:17:03;6.40;99.90
25192;DHT22;13143;50.924;5.320;2024-01-06T14:19:28;6.40;99.90
25192;DHT22;13143;50.924;5.320;2024-01-06T14:21:54;6.40;99.90
25192;DHT22;13143;50.924;5.320;2024-01-06T14:24:20;6.40;99.90
25192;DHT22;13143;50.924;5.320;2024-01-06T14:26:54;6.40;99.90
25192;DHT22;13143;50.924;5.320;2024-01-06T14:29:21;6.30;99.90
25192;DHT22;13143;50.924;5.320;2024-01-06T14:31:47;6.40;99.90
25192;DHT22;13143;50.924;5.320;2024-01-06T14:34:13;6.40;99.90
25192;DHT22;13143;50.924;5.320;2024-01-06T14:36:39;6.30;99.90
25192;DHT22;13143;50.924;5.320;2024-01-06T14:39:13;6.30;99.90
25192;DHT22;13143;50.924;5.320;2024-01-06T14:41:39;6.30;99.90
25192;DHT22;13143;50.924;5.320;2024-01-06T14:44:05;6.30;99.90
25192;DHT22;13143;50.924;5.320;2024-01-06T14:46:30;6.30;99.90
25192;DHT22;13143;50.924;5.320;2024-01-06T14:48:59;6.30;99.90
25192;DHT22;13143;50.924;5.320;2024-01-06T14:51:25;6.30;99.90
25192;DHT22;13143;50.924;5.320;2024-01-06T14:53:50;6.30;99.90
25192;DHT22;13143;50.924;5.320;2024-01-06T14:56:16;6.30;99.90
25192;DHT22;13143;50.924;5.320;2024-01-06T14:58:42;6.30;99.90
25192;DHT22;13143;50.924;5.320;2024-01-06T15:01:07;6.30;99.90
25192;DHT22;13143;50.924;5.320;2024-01-06T15:03:33;6.30;99.90
25192;DHT22;13143;50.924;5.320;2024-01-06T15:05:59;6.30;99.90
25192;DHT22;13143;50.924;5.320;2024-01-06T15:08:24;6.20;99.90
25192;DHT22;13143;50.924;5.320;2024-01-06T15:10:52;6.20;99.90
25192;DHT22;13143;50.924;5.320;2024-01-06T15:13:17;6.20;99.90
25192;DHT22;13143;50.924;5.320;2024-01-06T15:15:43;6.20;99.90
25192;DHT22;13143;50.924;5.320;2024-01-06T15:18:10;6.20;99.90
25192;DHT22;13143;50.924;5.320;2024-01-06T15:20:36;6.20;99.90
25192;DHT22;13143;50.924;5.320;2024-01-06T15:23:02;6.20;99.90
25192;DHT22;13143;50.924;5.320;2024-01-06T15:25:27;6.20;99.90
25192;DHT22;13143;50.924;5.320;2024-01-06T15:27:53;6.20;99.90
25192;DHT22;13143;50.924;5.320;2024-01-06T15:30:19;6.20;99.90
25192;DHT22;13143;50.924;5.320;2024-01-06T15:32:46;6.20;99.90
25192;DHT22;13143;50.924;5.320;2024-01-06T15:35:12;6.10;99.90
25192;DHT22;13143;50.924;5.320;2024-01-06T15:37:38;6.10;99.90
25192;DHT22;13143;50.924;5.320;2024-01-06T15:40:04;6.10;99.90
25192;DHT22;13143;50.924;5.320;2024-01-06T15:42:30;6.10;99.90